Terminal Aerodrome Forecast
Issued by NWS

Current Version | Previous Version | Text Only | Print | Product List | Glossary Off
Versions: 1 2 3 4 5 6 7 8 9 10 11 12 13 14 15 16 17 18 19 20 21 22 23 24 25 26 27 28 29 30 31 32 33 34 35 36 37 38 39 40

000
FTUS41 KRNK 312340
TAFLWB
TAF
KLWB 312340Z 0100/0124 24003KT P6SM BKN070 BKN090 BKN120
     FM010700 00000KT 1/4SM FG OVC001
     FM011400 25005KT P6SM BKN035
     FM011800 21007KT 5SM -TSRA BR OVC040CB
     FM012200 22007KT P6SM -SHRA BKN040=

USA.gov is the U.S. government's official web portal to all federal, state and local government web resources and services.